• Join FlightAware (Why Join?)
  • Login
  • US Flag 
03:30AM EDT


 

Airport Tracker/Info


-or-


 

Live Flight TrackerFlight Track Log ✈ N379PK ✈ 19-Jun-2013 ✈ KPAE - KLWS

Flight Track Log - Related Links

Times and Time Zones

All times are in EDT time to prevent confusion due to time zone crossing. See the N379PK flight status page for this flight to view local times or setup timezone preferences in your user account.

Time Position Orientation Groundspeed Altitude Reporting Facility
EDT Latitude Longitude Course Direction KTS MPH feet Rate Location/Type
08:02PM 47.8844 -122.2853 186° South 138 159 1,600  Level Seattle Center
08:03PM 47.8525 -122.2900 186° South 177 204 2,100 360 Climbing Seattle Center
08:05PM 47.7603 -122.2422 161° South 190 219 2,700 300 Climbing Seattle Center
08:06PM 47.7244 -122.1797 130° Southeast 197 227 3,100 180 Climbing Seattle Center
08:07PM 47.6944 -122.1139 124° Southeast 190 219 3,100 540 Level Seattle Center
08:08PM 47.6689 -122.0394 117° Southeast 190 219 4,200 1,500 Climbing Seattle Center
08:09PM 47.6378 -121.9711 124° Southeast 202 232 6,200 2,220 Climbing Seattle Center
08:10PM 47.5933 -121.9203 142° Southeast 191 220 8,900 2,280 Climbing Seattle Center
08:11PM 47.5528 -121.8739 142° Southeast 194 223 10,900 1,980 Climbing Seattle Center
08:12PM 47.5072 -121.8181 140° Southeast 201 231 13,000 1,020 Climbing Seattle Center
08:13PM 47.4542 -121.7522 140° Southeast 248 285 13,100 1,260 Climbing Seattle Center
08:14PM 47.4322 -121.6617 110° East 222 255 15,600 2,280 Climbing Seattle Center
08:15PM 47.4278 -121.5775 94° East 205 236 17,800 1,920 Climbing Seattle Center
08:16PM 47.4117 -121.5114 110° East 197 227 19,600 1,740 Climbing Seattle Center
08:17PM 47.3967 -121.4353 106° East 195 224 21,400 1,620 Climbing Seattle Center
08:18PM 47.3764 -121.3397 107° East 202 232 23,000 780 Climbing Seattle Center
08:19PM 47.3558 -121.2486 108° East 232 267 23,100  Climbing Seattle Center
08:20PM 47.3367 -121.1478 106° East 254 292 23,100 540 Level Seattle Center
08:21PM 47.3156 -121.0503 108° East 253 291 24,300 900 Climbing Seattle Center
08:22PM 47.2978 -120.9672 107° East 219 252 25,000 360 Climbing Seattle Center
08:23PM 47.2786 -120.8772 107° East 231 266 25,100  Climbing Seattle Center
08:24PM 47.2542 -120.7703 109° East 240 276 25,100 120 Level Seattle Center
08:25PM 47.2350 -120.6761 107° East 241 277 25,400 420 Climbing Seattle Center
08:26PM 47.2175 -120.5933 107° East 217 250 26,000 240 Climbing Seattle Center
08:27PM 47.1986 -120.5083 108° East 219 252 26,000 -360 Level Seattle Center
08:28PM 47.1775 -120.4181 109° East 232 267 25,300 -480 Descending Seattle Center
08:29PM 47.1572 -120.3211 107° East 245 282 25,100 -120 Descending Seattle Center
08:30PM 47.1367 -120.2269 108° East 245 282 25,100  Level Seattle Center
08:31PM 47.1164 -120.1367 108° East 236 272 25,100  Level Seattle Center
08:32PM 47.0967 -120.0458 108° East 234 269 25,100  Level Seattle Center
08:33PM 47.0772 -119.9547 107° East 235 270 25,100  Level Seattle Center
08:34PM 47.0558 -119.8642 109° East 235 270 25,100  Level Seattle Center
08:35PM 47.0322 -119.7556 108° East 234 269 25,100  Level Seattle Center
08:36PM 47.0114 -119.6664 109° East 233 268 25,100  Level Seattle Center
08:37PM 46.9939 -119.5783 106° East 227 261 25,100 -60 Level Seattle Center
08:38PM 46.9739 -119.4914 109° East 227 261 25,000 -60 Descending Seattle Center
08:39PM 46.9514 -119.4008 110° East 234 269 25,000  Level Seattle Center
08:40PM 46.9306 -119.3125 109° East 232 267 25,000  Level Seattle Center
08:41PM 46.9111 -119.2261 108° East 228 262 25,000  Level Seattle Center
08:42PM 46.8906 -119.1397 109° East 227 261 25,000  Level Seattle Center
08:43PM 46.8694 -119.0517 109° East 228 262 25,000 -60 Level Seattle Center
08:44PM 46.8489 -118.9625 109° East 230 265 24,900 -300 Descending Seattle Center
08:45PM 46.8283 -118.8733 109° East 233 268 24,400 -600 Descending Seattle Center
08:46PM 46.8103 -118.7522 102° East 249 287 23,700 -660 Descending Seattle Center
08:47PM 46.7939 -118.6494 103° East 257 296 23,100 -600 Descending Seattle Center
08:48PM 46.7781 -118.5475 103° East 259 298 22,500 -960 Descending Seattle Center
08:49PM 46.7631 -118.4408 102° East 264 304 21,200 -1,320 Descending Seattle Center
08:50PM 46.7456 -118.3306 103° East 274 315 19,900 -1,380 Descending Seattle Center
08:52PM 46.7283 -118.2211 103° East 278 320 18,400 -1,680 Descending Seattle Center
08:53PM 46.7133 -118.1175 102° East 267 307 16,600 -1,740 Descending Seattle Center
08:54PM 46.6978 -118.0189 103° East 255 293 14,900 -1,800 Descending Seattle Center
08:55PM 46.6833 -117.9239 102° East 243 280 13,000 -1,380 Descending Seattle Center
08:56PM 46.6672 -117.8364 105° East 226 260 12,100 -960 Descending Seattle Center
08:57PM 46.6564 -117.7606 102° East 198 228 11,100 -1,140 Descending Seattle Center
08:59PM 46.6300 -117.5889 103° East 201 231 8,700 -1,140 Descending Seattle Center
09:00PM 46.6158 -117.5064 104° East 206 237 7,800 -840 Descending Seattle Center
09:01PM 46.6033 -117.4267 103° East 206 237 7,100 -420 Descending Seattle Center
09:02PM 46.5847 -117.3583 112° Southeast 206 237 7,000 -300 Descending Seattle Center
09:03PM 46.5553 -117.3100 132° Southeast 178 205 6,600 -360 Descending Seattle Center
09:04PM 46.5275 -117.2619 130° Southeast 166 191 6,300 -300 Descending Seattle Center
09:05PM 46.4994 -117.2169 132° Southeast 157 181 6,100 -780 Descending Seattle Center
09:06PM 46.4683 -117.1661 132° Southeast 160 184 4,800 -1,260 Descending Seattle Center
09:07PM 46.4408 -117.1183 130° Southeast 159 183 3,600 -780 Descending Seattle Center
09:08PM 46.4106 -117.0639 129° Southeast 156 180 3,300 -300 Descending Seattle Center
09:10PM 46.3745 -117.0154 126° Southeast  Level Estimated